Decoded Metar for KSLK (SARANAC LAKE in NY, USA) (IATA:SLK) | Meteo·Mobile Aviation Weather
aviador You're here:

KSLK Decoded Metar

SARANAC LAKE in NY, USA
Report Time2019-04-23 14:51:00
UTC Time2019-04-23 15:53:01
Flight Rules vfr VFR
Wind060° at 05 kt
W.Decomp.*RWY 09: 4.8 kt HW 1.4 kt LCW
RWY 05: 4.6 kt HW 2.0 kt RCW
Visibility9999 m
Phenomena:N/A
Clouds:Scattered 110 Hf
Expected CloudBase > 4,800 ft AGL from Temp-Dew spread
CeilingNone
Temp15°C (ISA +3)
Dew Point03°C (45% RH)
AAT11.7°C
QNH1014 hPa
Density Alt2,090 ft
Elevation1,634 ft
Report Wrong Elevation
Raw Report
KSLK 231451Z AUTO 06005KT 10SM SCT110 15/03 A2995 RMK AO2 SLP148
T01500028 56014=

Extra information for KSLK:More info

Metar Taf Metar & Taf Last 4 Metars F.Rules Stats Wind Profile Meteogram Temp Stats Airport Information Weather charts Add Link Nearby VenuesMetar ALERT Operation Metar Decoded Social comments

AIRNAV info for KSLK